Time;durP1;ratioP1;P1;durP2;ratioP2;P2;SDS_P1;SDS_P2;PMS_P1;PMS_P2;Temp;Humidity;BMP_temperature;BMP_pressure;BME280_temperature;BME280_humidity;BME280_pressure;Samples;Min_cycle;Max_cycle;Signal;HPM_P1;HPM_P2
2021/12/22 00:01:09;;;;;;;14.80;9.90;;;2.10;99.90;;;;;;631778;226;26843;-84
2021/12/22 00:03:39;;;;;;;10.43;8.77;;;2.20;99.90;;;;;;631021;226;26583;-85
2021/12/22 00:06:05;;;;;;;12.50;8.93;;;2.60;99.90;;;;;;630334;225;26596;-85
2021/12/22 00:08:32;;;;;;;13.60;8.87;;;2.60;99.90;;;;;;629985;226;26606;-84
2021/12/22 00:10:59;;;;;;;13.70;9.50;;;3.00;99.90;;;;;;632019;226;26602;-84
2021/12/22 00:13:29;;;;;;;14.93;9.90;;;2.40;99.90;;;;;;629221;226;26587;-84
2021/12/22 00:15:54;;;;;;;17.20;9.83;;;2.40;99.90;;;;;;630359;226;27115;-85
2021/12/22 00:18:22;;;;;;;16.00;9.33;;;2.50;99.90;;;;;;628872;226;26567;-85
2021/12/22 00:20:49;;;;;;;12.50;8.60;;;2.90;99.90;;;;;;629304;222;26848;-85
2021/12/22 00:23:16;;;;;;;12.57;9.90;;;2.90;99.90;;;;;;630966;222;26586;-85
2021/12/22 00:25:43;;;;;;;16.37;9.80;;;2.80;99.90;;;;;;629251;226;27010;-85
2021/12/22 00:28:11;;;;;;;16.43;10.43;;;3.20;99.90;;;;;;631484;226;26609;-84
2021/12/22 00:30:39;;;;;;;13.10;9.60;;;3.20;99.90;;;;;;630960;226;26602;-85
2021/12/22 00:33:10;;;;;;;14.50;9.67;;;3.30;99.90;;;;;;630604;226;26603;-85
2021/12/22 00:35:40;;;;;;;10.67;8.03;;;3.20;99.90;;;;;;628547;226;26872;-85
2021/12/22 00:38:04;;;;;;;9.43;8.10;;;3.20;99.90;;;;;;631485;226;26872;-85
2021/12/22 00:40:31;;;;;;;11.70;7.87;;;3.10;99.90;;;;;;632105;224;26613;-85
2021/12/22 00:42:59;;;;;;;10.50;7.63;;;3.20;99.90;;;;;;631326;225;26586;-85
2021/12/22 00:45:28;;;;;;;10.00;7.53;;;2.90;99.90;;;;;;629677;225;26644;-85
2021/12/22 00:47:54;;;;;;;12.43;8.20;;;2.90;99.90;;;;;;632069;225;26582;-85
2021/12/22 00:50:22;;;;;;;11.33;9.43;;;2.80;99.90;;;;;;631284;226;26615;-85
2021/12/22 00:52:48;;;;;;;12.43;8.80;;;2.90;99.90;;;;;;631555;225;26903;-85
2021/12/22 00:55:18;;;;;;;10.60;8.67;;;3.00;99.90;;;;;;628576;226;26592;-85
2021/12/22 00:57:43;;;;;;;12.87;9.77;;;3.20;99.90;;;;;;631140;225;26797;-85
2021/12/22 01:00:10;;;;;;;12.03;9.67;;;3.40;99.90;;;;;;631643;226;26583;-85
2021/12/22 01:02:37;;;;;;;11.53;8.37;;;3.30;99.90;;;;;;631548;226;26570;-85
2021/12/22 01:05:04;;;;;;;8.60;7.60;;;3.00;99.90;;;;;;634703;226;26565;-85
2021/12/22 01:07:32;;;;;;;11.27;8.00;;;3.00;99.90;;;;;;630919;226;26959;-87
2021/12/22 01:09:59;;;;;;;9.73;8.30;;;3.00;99.90;;;;;;630920;226;26591;-85
2021/12/22 01:12:26;;;;;;;11.10;8.00;;;2.50;99.90;;;;;;631921;226;27069;-85
2021/12/22 01:14:53;;;;;;;8.73;7.63;;;2.20;99.90;;;;;;630574;226;26602;-85
2021/12/22 01:17:20;;;;;;;9.50;8.50;;;2.50;99.90;;;;;;633437;226;26596;-85
2021/12/22 01:20:02;;;;;;;9.87;8.07;;;2.90;99.90;;;;;;630620;226;26619;-85
2021/12/22 01:22:30;;;;;;;8.80;7.10;;;2.90;99.90;;;;;;629161;226;26623;-85
2021/12/22 01:24:58;;;;;;;11.90;7.63;;;2.70;99.90;;;;;;628309;226;27277;-85
2021/12/22 01:27:20;;;;;;;10.13;8.03;;;2.80;99.90;;;;;;627720;226;26592;-85
2021/12/22 01:29:42;;;;;;;11.33;7.60;;;3.10;99.90;;;;;;632542;226;26838;-85
2021/12/22 01:32:12;;;;;;;10.17;8.17;;;3.50;99.90;;;;;;632562;226;26582;-86
2021/12/22 01:34:38;;;;;;;13.03;7.27;;;3.30;99.90;;;;;;628486;226;26602;-86
2021/12/22 01:37:06;;;;;;;9.17;7.50;;;3.10;99.90;;;;;;630740;226;26599;-88
2021/12/22 01:39:33;;;;;;;11.23;8.10;;;3.10;99.90;;;;;;629529;226;26879;-86
2021/12/22 01:42:00;;;;;;;14.37;7.73;;;3.20;99.90;;;;;;630464;226;26618;-85
2021/12/22 01:44:33;;;;;;;9.90;7.57;;;2.90;99.90;;;;;;632819;226;26849;-84
2021/12/22 01:49:50;;;;;;;10.90;8.10;;;1.80;99.90;;;;;;631037;226;26640;-84
2021/12/22 01:52:16;;;;;;;9.23;7.83;;;1.80;99.90;;;;;;628987;225;26634;-84
2021/12/22 01:54:48;;;;;;;9.37;7.93;;;2.00;99.90;;;;;;631373;225;26534;-84
2021/12/22 01:57:12;;;;;;;11.63;7.50;;;2.30;99.90;;;;;;632549;225;26609;-85
2021/12/22 01:59:39;;;;;;;12.83;8.33;;;2.10;99.90;;;;;;631321;225;26634;-84
2021/12/22 02:02:07;;;;;;;11.33;9.07;;;2.00;99.90;;;;;;633468;225;26767;-85
2021/12/22 02:04:35;;;;;;;10.03;7.97;;;1.90;99.90;;;;;;634573;225;26583;-86
2021/12/22 02:07:01;;;;;;;11.47;9.10;;;2.00;99.90;;;;;;633316;225;26811;-85
2021/12/22 02:09:51;;;;;;;11.87;8.80;;;2.80;99.90;;;;;;629636;226;26638;-86
2021/12/22 02:11:58;;;;;;;14.13;9.53;;;2.80;99.90;;;;;;628554;226;26604;-85
2021/12/22 02:14:26;;;;;;;14.47;10.03;;;2.60;99.90;;;;;;630111;226;26509;-86
2021/12/22 02:16:53;;;;;;;15.27;10.33;;;2.60;99.90;;;;;;630102;226;26608;-85
2021/12/22 02:19:20;;;;;;;14.47;10.37;;;2.60;99.90;;;;;;630079;225;26601;-85
2021/12/22 02:21:53;;;;;;;15.60;10.97;;;2.60;99.90;;;;;;630169;226;26540;-86
2021/12/22 02:24:15;;;;;;;18.67;10.33;;;3.00;99.90;;;;;;632000;226;26591;-85
2021/12/22 02:26:50;;;;;;;14.00;10.03;;;3.30;99.90;;;;;;630237;226;26586;-85
2021/12/22 02:29:21;;;;;;;15.27;10.30;;;3.10;99.90;;;;;;628424;226;26625;-85
2021/12/22 02:31:49;;;;;;;14.20;10.43;;;3.10;99.90;;;;;;628952;226;26933;-86
2021/12/22 02:34:15;;;;;;;11.87;9.57;;;3.00;99.90;;;;;;631846;226;26608;-86
2021/12/22 02:36:40;;;;;;;11.83;9.73;;;3.00;99.90;;;;;;632390;226;26821;-85
2021/12/22 02:39:07;;;;;;;10.70;9.60;;;2.70;99.90;;;;;;629571;226;26594;-85
2021/12/22 02:41:37;;;;;;;10.87;9.23;;;3.10;99.90;;;;;;629276;226;26588;-85
2021/12/22 02:44:03;;;;;;;12.67;9.73;;;3.30;99.90;;;;;;626479;226;26613;-86
2021/12/22 02:46:31;;;;;;;13.53;9.27;;;3.30;99.90;;;;;;630068;224;26816;-85
2021/12/22 02:48:57;;;;;;;11.60;8.20;;;3.10;99.90;;;;;;631652;226;26592;-86
2021/12/22 02:51:28;;;;;;;9.30;8.17;;;3.20;99.90;;;;;;630520;226;26814;-85
2021/12/22 02:56:32;;;;;;;14.47;10.30;;;2.90;99.90;;;;;;629265;226;26808;-86
2021/12/22 02:59:03;;;;;;;12.37;9.10;;;2.70;99.90;;;;;;632799;226;26595;-85
2021/12/22 03:01:41;;;;;;;10.13;8.47;;;2.60;99.90;;;;;;629042;226;26581;-86
2021/12/22 03:06:40;;;;;;;12.43;8.47;;;2.80;99.90;;;;;;630365;225;26593;-85
2021/12/22 03:09:15;;;;;;;12.23;9.20;;;2.70;99.90;;;;;;631080;225;26583;-86
2021/12/22 03:11:42;;;;;;;13.47;9.27;;;2.60;99.90;;;;;;630740;226;26828;-85
2021/12/22 03:14:09;;;;;;;11.07;9.13;;;2.80;99.90;;;;;;633458;226;26547;-86
2021/12/22 03:16:36;;;;;;;12.17;9.40;;;2.40;99.90;;;;;;631684;226;26789;-86
2021/12/22 03:19:04;;;;;;;12.10;9.23;;;2.60;99.90;;;;;;631024;226;26589;-86
2021/12/22 03:21:32;;;;;;;13.13;9.40;;;2.50;99.90;;;;;;631236;222;26619;-84
2021/12/22 03:23:59;;;;;;;10.27;8.53;;;2.50;99.90;;;;;;633525;226;26594;-86
2021/12/22 03:26:28;;;;;;;11.67;8.97;;;2.70;99.90;;;;;;630766;226;26606;-86
2021/12/22 03:28:54;;;;;;;10.93;8.73;;;2.80;99.90;;;;;;618318;227;26882;-86
2021/12/22 03:31:21;;;;;;;15.70;8.43;;;2.90;99.90;;;;;;632613;226;26586;-85
2021/12/22 03:33:48;;;;;;;9.87;8.83;;;3.10;99.90;;;;;;631680;226;26820;-84
2021/12/22 03:36:16;;;;;;;10.90;8.13;;;3.10;99.90;;;;;;630632;226;26739;-84
2021/12/22 03:38:46;;;;;;;10.03;8.43;;;3.00;99.90;;;;;;632589;226;26596;-84
2021/12/22 03:41:11;;;;;;;10.47;8.67;;;2.90;99.90;;;;;;629531;226;26638;-85
2021/12/22 03:43:39;;;;;;;9.83;7.50;;;2.80;99.90;;;;;;634839;226;26614;-85
2021/12/22 03:46:06;;;;;;;8.20;7.27;;;2.50;99.90;;;;;;627646;226;26817;-86
2021/12/22 03:48:33;;;;;;;12.17;8.13;;;2.40;99.90;;;;;;631592;226;26579;-88
2021/12/22 03:51:00;;;;;;;9.90;7.83;;;2.50;99.90;;;;;;629901;226;26606;-84
2021/12/22 03:53:28;;;;;;;9.83;6.97;;;2.80;99.90;;;;;;634390;226;26581;-81
2021/12/22 03:55:56;;;;;;;7.30;6.60;;;2.70;99.90;;;;;;629814;221;26611;-82
2021/12/22 03:58:23;;;;;;;7.67;6.33;;;2.70;99.90;;;;;;629645;226;26826;-81
2021/12/22 04:00:52;;;;;;;6.83;6.13;;;2.80;99.90;;;;;;632134;226;26826;-82
2021/12/22 04:03:21;;;;;;;8.37;5.87;;;3.00;99.90;;;;;;628452;226;26820;-81
2021/12/22 04:05:46;;;;;;;6.33;5.27;;;2.60;99.90;;;;;;630053;226;26597;-82
2021/12/22 04:08:17;;;;;;;7.30;5.53;;;2.50;99.90;;;;;;630598;226;26622;-81
2021/12/22 04:10:41;;;;;;;7.90;5.00;;;2.40;99.90;;;;;;627126;226;26889;-82
2021/12/22 04:13:09;;;;;;;7.50;5.13;;;2.40;99.90;;;;;;632631;225;26622;-82
2021/12/22 04:15:35;;;;;;;5.13;4.43;;;2.30;99.90;;;;;;634615;224;27246;-82
2021/12/22 04:18:03;;;;;;;5.23;4.77;;;2.20;99.90;;;;;;633952;225;26599;-82
2021/12/22 04:20:31;;;;;;;6.83;4.80;;;2.10;99.90;;;;;;630093;225;26603;-82
2021/12/22 04:22:59;;;;;;;5.03;4.53;;;2.00;99.90;;;;;;633713;226;26713;-86
2021/12/22 04:25:26;;;;;;;5.20;4.73;;;2.00;99.90;;;;;;625454;226;26639;-82
2021/12/22 04:27:55;;;;;;;6.33;4.80;;;2.10;99.90;;;;;;630848;226;26608;-83
2021/12/22 04:30:21;;;;;;;7.67;5.03;;;2.10;99.90;;;;;;631434;225;26920;-83
2021/12/22 04:32:48;;;;;;;5.60;4.17;;;2.10;99.90;;;;;;633168;226;26798;-82
2021/12/22 04:35:16;;;;;;;5.50;4.33;;;2.30;99.90;;;;;;631793;226;26824;-83
2021/12/22 04:37:44;;;;;;;5.07;4.67;;;2.20;99.90;;;;;;629876;226;26599;-82
2021/12/22 04:40:12;;;;;;;6.67;4.50;;;2.30;99.90;;;;;;628006;226;26612;-82
2021/12/22 04:42:39;;;;;;;5.90;4.17;;;2.30;99.90;;;;;;631899;225;26599;-82
2021/12/22 04:45:08;;;;;;;5.97;4.53;;;2.30;99.90;;;;;;631840;226;26584;-82
2021/12/22 04:47:34;;;;;;;5.53;4.23;;;2.30;99.90;;;;;;628587;226;26590;-83
2021/12/22 04:50:02;;;;;;;5.93;4.13;;;2.30;99.90;;;;;;628292;226;26868;-82
2021/12/22 04:52:39;;;;;;;4.13;3.83;;;2.60;99.90;;;;;;629391;226;26610;-82
2021/12/22 04:55:03;;;;;;;5.77;4.50;;;2.60;99.90;;;;;;631558;224;26623;-82
2021/12/22 04:57:29;;;;;;;5.33;4.43;;;2.60;99.90;;;;;;627992;226;26854;-82
2021/12/22 04:59:56;;;;;;;4.50;4.10;;;2.30;99.90;;;;;;632169;226;26619;-82
2021/12/22 05:02:23;;;;;;;7.90;4.60;;;2.00;99.90;;;;;;631306;226;26820;-83
2021/12/22 05:04:51;;;;;;;6.23;4.80;;;2.10;99.90;;;;;;629659;226;26808;-83
2021/12/22 05:07:19;;;;;;;8.43;4.57;;;2.00;99.90;;;;;;631647;222;26607;-82
2021/12/22 05:09:46;;;;;;;9.07;5.10;;;2.00;99.90;;;;;;630260;226;26907;-83
2021/12/22 05:12:13;;;;;;;6.87;5.27;;;2.00;99.90;;;;;;630895;226;26609;-82
2021/12/22 05:14:44;;;;;;;6.17;5.60;;;1.80;99.90;;;;;;630879;226;26877;-82
2021/12/22 05:17:17;;;;;;;6.97;5.10;;;1.50;99.90;;;;;;628143;226;26582;-83
2021/12/22 05:19:36;;;;;;;5.77;5.27;;;1.60;99.90;;;;;;629826;226;26604;-82
2021/12/22 05:22:04;;;;;;;8.10;6.10;;;1.60;99.90;;;;;;627108;226;26847;-82
2021/12/22 05:24:31;;;;;;;7.73;6.33;;;1.80;99.90;;;;;;629200;226;26634;-83
2021/12/22 05:26:58;;;;;;;8.23;6.60;;;1.90;99.90;;;;;;630469;223;26871;-83
2021/12/22 05:29:26;;;;;;;9.07;6.10;;;1.80;99.90;;;;;;630906;225;26612;-82
2021/12/22 05:31:55;;;;;;;9.37;6.33;;;1.70;99.90;;;;;;631739;225;26592;-82
2021/12/22 05:34:21;;;;;;;9.30;6.40;;;1.70;99.90;;;;;;631583;225;26611;-82
2021/12/22 05:36:48;;;;;;;9.50;6.20;;;1.60;99.90;;;;;;630280;225;26567;-82
2021/12/22 05:39:15;;;;;;;7.43;6.73;;;1.40;99.90;;;;;;629846;226;26857;-82
2021/12/22 05:41:43;;;;;;;9.83;6.70;;;1.30;99.90;;;;;;628387;226;26581;-81
2021/12/22 05:44:11;;;;;;;9.00;8.10;;;1.30;99.90;;;;;;633787;222;26580;-82
2021/12/22 05:46:39;;;;;;;10.17;7.93;;;1.30;99.90;;;;;;629398;225;26547;-83
2021/12/22 05:49:06;;;;;;;9.63;8.63;;;1.30;99.90;;;;;;630091;226;26558;-82
2021/12/22 05:51:34;;;;;;;12.57;8.70;;;1.60;99.90;;;;;;631822;226;26825;-82
2021/12/22 05:54:00;;;;;;;10.07;8.43;;;1.50;99.90;;;;;;628926;226;26533;-84
2021/12/22 05:56:30;;;;;;;13.00;8.70;;;1.40;99.90;;;;;;629661;226;27234;-83
2021/12/22 05:58:55;;;;;;;10.77;9.07;;;1.50;99.90;;;;;;631031;226;26546;-82
2021/12/22 06:01:23;;;;;;;10.37;8.67;;;1.40;99.90;;;;;;626803;227;26555;-82
2021/12/22 06:03:51;;;;;;;14.27;8.80;;;1.00;99.90;;;;;;628893;226;26584;-82
2021/12/22 06:06:18;;;;;;;10.87;7.97;;;1.00;99.90;;;;;;632811;226;26846;-82
2021/12/22 06:08:46;;;;;;;12.70;9.47;;;0.80;99.90;;;;;;627776;226;26591;-83
2021/12/22 06:11:13;;;;;;;12.60;8.93;;;0.80;99.90;;;;;;628330;226;26868;-83
2021/12/22 06:13:40;;;;;;;12.00;9.67;;;0.80;99.90;;;;;;630217;226;26606;-82
2021/12/22 06:16:07;;;;;;;14.10;10.53;;;0.80;99.90;;;;;;632504;226;26580;-82
2021/12/22 06:18:41;;;;;;;15.40;9.93;;;0.80;99.90;;;;;;630773;226;26622;-83
2021/12/22 06:21:03;;;;;;;15.50;10.40;;;0.50;99.90;;;;;;629146;226;26820;-82
2021/12/22 06:23:31;;;;;;;13.03;9.57;;;0.50;99.90;;;;;;632139;226;26607;-83
2021/12/22 06:25:58;;;;;;;14.03;9.93;;;0.50;99.90;;;;;;631525;226;26589;-82
2021/12/22 06:28:25;;;;;;;14.13;9.47;;;0.40;99.90;;;;;;632930;222;26601;-83
2021/12/22 06:30:53;;;;;;;11.23;9.83;;;0.40;99.90;;;;;;639130;225;26956;-82
2021/12/22 06:33:20;;;;;;;13.27;10.60;;;0.40;99.90;;;;;;639111;225;26552;-81
2021/12/22 06:35:47;;;;;;;16.47;9.73;;;0.30;99.90;;;;;;639128;225;27255;-82
2021/12/22 06:38:15;;;;;;;13.37;9.93;;;0.80;99.90;;;;;;640042;223;26586;-83
2021/12/22 06:40:43;;;;;;;16.60;10.33;;;0.30;99.90;;;;;;640875;224;26586;-83
2021/12/22 06:43:11;;;;;;;15.30;9.70;;;0.30;99.90;;;;;;640672;224;26517;-84
2021/12/22 06:45:38;;;;;;;16.83;10.53;;;0.30;99.90;;;;;;640536;225;26511;-82
2021/12/22 06:48:05;;;;;;;12.67;9.67;;;0.40;99.90;;;;;;640249;225;26584;-86
2021/12/22 06:50:33;;;;;;;13.37;10.23;;;0.30;99.90;;;;;;640204;225;26848;-83
2021/12/22 06:53:00;;;;;;;14.03;10.10;;;0.40;99.90;;;;;;640225;225;26556;-82
2021/12/22 06:55:27;;;;;;;14.97;11.07;;;0.20;99.90;;;;;;640177;225;26778;-82
2021/12/22 06:57:55;;;;;;;14.80;10.90;;;0.30;99.90;;;;;;639878;225;26508;-82
2021/12/22 07:00:22;;;;;;;17.60;11.40;;;0.20;99.90;;;;;;639519;225;26812;-83
2021/12/22 07:02:49;;;;;;;22.10;12.47;;;0.30;99.90;;;;;;639449;225;26760;-82
2021/12/22 07:05:16;;;;;;;15.93;11.73;;;0.50;99.90;;;;;;639453;224;26837;-83
2021/12/22 07:07:44;;;;;;;12.57;10.50;;;0.40;99.90;;;;;;639429;225;26546;-83
2021/12/22 07:10:11;;;;;;;15.17;11.97;;;0.40;99.90;;;;;;639438;224;26845;-83
2021/12/22 07:12:40;;;;;;;15.30;10.73;;;0.50;99.90;;;;;;639415;225;26538;-80
2021/12/22 07:15:09;;;;;;;17.73;11.47;;;0.50;99.90;;;;;;639220;225;26590;-81
2021/12/22 07:17:35;;;;;;;19.07;11.23;;;0.60;99.90;;;;;;639177;225;26616;-88
2021/12/22 07:20:02;;;;;;;19.80;12.13;;;0.60;99.90;;;;;;639363;225;26882;-88
2021/12/22 07:22:30;;;;;;;15.10;11.17;;;0.40;99.90;;;;;;639304;225;26635;-88
2021/12/22 07:24:57;;;;;;;21.17;11.63;;;0.40;99.90;;;;;;639364;221;26850;-87
2021/12/22 07:27:24;;;;;;;18.30;11.07;;;0.30;99.90;;;;;;639342;225;26603;-88
2021/12/22 07:29:51;;;;;;;18.27;11.70;;;0.40;99.90;;;;;;639294;225;26812;-87
2021/12/22 07:32:18;;;;;;;17.67;12.20;;;0.40;99.90;;;;;;637448;225;26623;-88
2021/12/22 07:34:47;;;;;;;18.87;12.00;;;0.50;99.90;;;;;;631997;226;27078;-86
2021/12/22 07:37:19;;;;;;;16.03;11.43;;;0.50;99.90;;;;;;626909;226;26605;-88
2021/12/22 07:39:47;;;;;;;15.27;11.90;;;0.50;99.90;;;;;;629354;226;26603;-88
2021/12/22 07:42:15;;;;;;;16.23;11.57;;;0.60;99.90;;;;;;629826;226;26596;-88
2021/12/22 07:44:43;;;;;;;25.30;13.27;;;0.60;99.90;;;;;;634817;226;26544;-87
2021/12/22 07:47:10;;;;;;;19.10;12.20;;;0.60;99.90;;;;;;630066;226;26611;-88
2021/12/22 07:49:38;;;;;;;16.90;12.70;;;0.70;99.90;;;;;;634289;226;26596;-87
2021/12/22 07:52:05;;;;;;;17.63;11.93;;;0.80;99.90;;;;;;631206;225;26604;-87
2021/12/22 07:54:32;;;;;;;18.33;12.57;;;0.80;99.90;;;;;;631575;225;26846;-85
2021/12/22 07:56:59;;;;;;;15.17;12.23;;;0.80;99.90;;;;;;633602;226;26581;-87
2021/12/22 07:59:27;;;;;;;18.67;13.17;;;0.60;99.90;;;;;;631250;225;26831;-87
2021/12/22 08:01:54;;;;;;;19.77;12.40;;;0.70;99.90;;;;;;628823;225;26576;-86
2021/12/22 08:04:21;;;;;;;19.43;12.40;;;0.70;99.90;;;;;;628708;226;26847;-88
2021/12/22 08:06:48;;;;;;;20.37;13.47;;;0.70;99.90;;;;;;632244;226;26592;-88
2021/12/22 08:09:15;;;;;;;17.47;13.17;;;0.70;99.90;;;;;;631285;226;26892;-89
2021/12/22 08:11:43;;;;;;;17.03;12.23;;;0.70;99.90;;;;;;631176;226;26604;-89
2021/12/22 08:14:10;;;;;;;16.17;12.67;;;0.60;99.90;;;;;;632981;226;26603;-86
2021/12/22 08:16:37;;;;;;;21.43;13.33;;;0.80;99.90;;;;;;633401;226;26592;-89
2021/12/22 08:19:04;;;;;;;18.57;12.07;;;0.70;99.90;;;;;;628625;226;26545;-87
2021/12/22 08:21:32;;;;;;;21.70;12.43;;;0.80;99.90;;;;;;630899;226;26548;-86
2021/12/22 08:24:00;;;;;;;17.63;12.63;;;0.90;99.90;;;;;;632238;226;26744;-87
2021/12/22 08:26:27;;;;;;;20.63;13.33;;;0.90;99.90;;;;;;633325;222;26619;-86
2021/12/22 08:28:55;;;;;;;17.63;12.23;;;1.10;99.90;;;;;;630903;226;26567;-86
2021/12/22 08:31:22;;;;;;;19.57;11.70;;;1.10;99.90;;;;;;628502;226;26595;-85
2021/12/22 08:33:49;;;;;;;20.70;13.33;;;1.00;99.90;;;;;;629973;226;26565;-87
2021/12/22 08:38:51;;;;;;;27.30;13.90;;;1.20;99.90;;;;;;631071;226;26563;-85
2021/12/22 08:41:21;;;;;;;26.73;13.67;;;1.20;99.90;;;;;;631343;226;26832;-87
2021/12/22 08:43:48;;;;;;;24.60;12.30;;;1.50;99.90;;;;;;629854;226;26613;-88
2021/12/22 08:46:15;;;;;;;31.60;14.77;;;1.50;99.90;;;;;;630717;226;27067;-88
2021/12/22 08:48:43;;;;;;;24.23;12.33;;;1.40;99.90;;;;;;633002;226;26585;-87
2021/12/22 08:51:10;;;;;;;22.20;13.20;;;1.50;99.90;;;;;;632513;226;26615;-85
2021/12/22 08:53:38;;;;;;;18.90;12.53;;;1.50;99.90;;;;;;630788;226;26597;-85
2021/12/22 08:56:06;;;;;;;17.30;11.50;;;1.50;99.90;;;;;;632381;226;26553;-86
2021/12/22 08:58:34;;;;;;;17.67;11.70;;;1.50;99.90;;;;;;631699;226;26587;-86
2021/12/22 09:01:02;;;;;;;16.10;11.17;;;1.60;99.90;;;;;;630941;224;26657;-86
2021/12/22 09:03:29;;;;;;;21.80;13.07;;;1.60;99.90;;;;;;632464;225;26589;-89
2021/12/22 09:05:56;;;;;;;20.20;12.77;;;1.60;99.90;;;;;;633906;225;26624;-88
2021/12/22 09:08:23;;;;;;;20.80;13.77;;;1.60;99.90;;;;;;635277;225;26681;-89
2021/12/22 09:10:51;;;;;;;19.03;12.90;;;1.60;99.90;;;;;;630162;225;26599;-88
2021/12/22 09:13:20;;;;;;;18.10;13.87;;;1.50;99.90;;;;;;631876;225;26819;-90
2021/12/22 09:15:45;;;;;;;19.17;14.27;;;1.50;99.90;;;;;;628743;226;26632;-88
2021/12/22 09:18:12;;;;;;;20.97;13.73;;;1.70;99.90;;;;;;631102;225;26823;-88
2021/12/22 09:20:39;;;;;;;21.77;14.33;;;1.80;99.90;;;;;;630412;225;26562;-85
2021/12/22 09:23:07;;;;;;;21.30;14.33;;;1.90;99.90;;;;;;629954;226;26513;-88
2021/12/22 09:25:34;;;;;;;24.47;14.50;;;1.70;99.90;;;;;;631874;226;26924;-89
2021/12/22 09:28:01;;;;;;;17.60;12.77;;;1.70;99.90;;;;;;632494;226;26602;-88
2021/12/22 09:30:35;;;;;;;20.13;14.57;;;1.70;99.90;;;;;;630249;226;27523;-89
2021/12/22 09:32:56;;;;;;;21.47;13.80;;;1.70;99.90;;;;;;629614;226;26600;-88
2021/12/22 09:35:23;;;;;;;22.37;14.50;;;1.90;99.90;;;;;;630652;226;26830;-89
2021/12/22 09:37:50;;;;;;;21.97;15.50;;;2.00;99.90;;;;;;629139;226;26569;-89
2021/12/22 09:40:17;;;;;;;22.33;15.40;;;2.10;99.90;;;;;;629532;226;26808;-88
2021/12/22 09:42:45;;;;;;;22.23;14.77;;;2.30;99.90;;;;;;629588;226;26576;-89
2021/12/22 09:45:12;;;;;;;22.47;15.87;;;2.30;99.90;;;;;;627784;226;26815;-89
2021/12/22 09:48:16;;;;;;;20.27;14.83;;;2.10;99.90;;;;;;630142;226;26804;-89
2021/12/22 09:50:39;;;;;;;22.27;14.97;;;2.20;99.90;;;;;;627221;226;26632;-89
2021/12/22 09:52:52;;;;;;;22.53;15.70;;;2.20;99.90;;;;;;628102;225;26591;-88
2021/12/22 09:55:19;;;;;;;22.00;15.43;;;2.30;99.90;;;;;;628916;226;26630;-88
2021/12/22 09:57:47;;;;;;;20.13;15.00;;;2.10;99.90;;;;;;633747;226;26543;-88
2021/12/22 10:00:14;;;;;;;20.97;15.50;;;2.20;99.90;;;;;;627359;226;26597;-89
2021/12/22 10:02:41;;;;;;;22.87;16.00;;;2.20;99.90;;;;;;623989;230;26588;-85
2021/12/22 10:05:08;;;;;;;23.13;16.07;;;2.10;99.90;;;;;;623991;230;26640;-81
2021/12/22 10:07:38;;;;;;;25.57;16.33;;;2.20;99.90;;;;;;624296;226;26931;-76
2021/12/22 10:10:05;;;;;;;23.27;16.40;;;2.10;99.90;;;;;;633726;223;26554;-81
2021/12/22 10:12:32;;;;;;;24.93;17.00;;;2.10;99.90;;;;;;634688;224;26797;-81
2021/12/22 10:14:59;;;;;;;23.10;16.03;;;2.10;99.90;;;;;;637637;225;26550;-81
2021/12/22 10:17:30;;;;;;;24.07;16.57;;;2.30;99.90;;;;;;637562;225;26831;-82
2021/12/22 10:19:58;;;;;;;22.83;16.53;;;2.50;99.90;;;;;;637132;226;26604;-82
2021/12/22 10:22:30;;;;;;;22.03;15.47;;;2.50;99.90;;;;;;630129;226;26602;-85
2021/12/22 10:25:00;;;;;;;21.63;16.83;;;2.70;99.90;;;;;;624445;226;26615;-86
2021/12/22 10:27:29;;;;;;;24.93;17.33;;;2.70;99.90;;;;;;624328;230;26594;-87
2021/12/22 10:29:54;;;;;;;23.93;16.60;;;2.70;99.90;;;;;;624257;227;26666;-85
2021/12/22 10:32:22;;;;;;;26.63;17.43;;;2.80;99.90;;;;;;624198;230;26551;-85
2021/12/22 10:34:54;;;;;;;21.73;16.33;;;2.90;99.90;;;;;;624303;230;26535;-77
2021/12/22 10:37:30;;;;;;;23.20;16.50;;;2.70;99.90;;;;;;625440;226;27241;-77
2021/12/22 10:39:57;;;;;;;22.33;16.27;;;2.60;99.90;;;;;;636749;226;26615;-76
2021/12/22 10:42:24;;;;;;;23.47;16.93;;;2.70;99.90;;;;;;636828;224;26598;-77
2021/12/22 10:44:53;;;;;;;25.83;17.37;;;2.80;99.90;;;;;;634650;226;26820;-78
2021/12/22 10:47:19;;;;;;;24.07;17.73;;;2.70;99.90;;;;;;636714;222;26626;-77
2021/12/22 10:50:01;;;;;;;21.90;16.67;;;2.70;99.90;;;;;;636328;226;26863;-76
2021/12/22 10:52:31;;;;;;;23.53;16.13;;;2.60;99.90;;;;;;634703;222;26547;-76
2021/12/22 10:55:07;;;;;;;23.83;17.23;;;2.50;99.90;;;;;;636161;226;26565;-77
2021/12/22 10:57:35;;;;;;;24.60;16.23;;;2.90;99.90;;;;;;635737;226;26604;-77
2021/12/22 11:00:02;;;;;;;24.17;16.90;;;3.10;99.90;;;;;;636000;226;26879;-77
2021/12/22 11:02:35;;;;;;;22.63;15.97;;;2.80;99.90;;;;;;634920;226;26805;-77
2021/12/22 11:04:57;;;;;;;24.53;16.97;;;2.70;99.90;;;;;;635693;226;26611;-77
2021/12/22 11:07:28;;;;;;;23.60;15.80;;;2.60;99.90;;;;;;636101;226;26790;-77
2021/12/22 11:09:51;;;;;;;21.03;16.27;;;2.90;99.90;;;;;;636357;226;26617;-77
2021/12/22 11:12:18;;;;;;;26.97;16.37;;;3.20;99.90;;;;;;636459;226;26864;-77
2021/12/22 11:14:47;;;;;;;24.03;17.00;;;3.30;99.90;;;;;;633868;226;26618;-76
2021/12/22 11:17:15;;;;;;;22.93;16.27;;;3.20;99.90;;;;;;636099;226;26594;-77
2021/12/22 11:19:49;;;;;;;24.57;16.47;;;3.10;99.90;;;;;;636342;226;26793;-77
2021/12/22 11:22:17;;;;;;;21.80;16.07;;;3.40;99.90;;;;;;636299;226;26539;-76
2021/12/22 11:24:45;;;;;;;23.97;17.43;;;3.60;99.90;;;;;;637452;224;26606;-77
2021/12/22 11:27:13;;;;;;;22.33;15.37;;;3.30;99.90;;;;;;637931;225;26542;-77
2021/12/22 11:29:41;;;;;;;23.70;16.87;;;3.10;99.90;;;;;;637844;221;26637;-77
2021/12/22 11:32:09;;;;;;;21.23;15.77;;;3.10;99.90;;;;;;637818;225;26568;-77
2021/12/22 11:34:36;;;;;;;20.63;15.30;;;3.10;99.90;;;;;;637622;226;26564;-76
2021/12/22 11:37:04;;;;;;;22.80;17.07;;;3.10;99.90;;;;;;637486;226;26847;-77
2021/12/22 11:39:32;;;;;;;24.40;15.63;;;3.30;99.90;;;;;;637461;226;26588;-79
2021/12/22 11:42:03;;;;;;;23.63;16.40;;;3.30;99.90;;;;;;637375;226;26534;-78
2021/12/22 11:44:28;;;;;;;23.77;15.90;;;3.50;99.90;;;;;;636731;226;26541;-76
2021/12/22 11:46:56;;;;;;;21.07;15.37;;;3.60;99.90;;;;;;633545;222;26594;-77
2021/12/22 11:49:24;;;;;;;22.10;15.93;;;3.60;99.90;;;;;;636801;221;26599;-77
2021/12/22 11:51:52;;;;;;;20.87;14.90;;;3.50;99.90;;;;;;636777;226;26587;-77
2021/12/22 11:54:27;;;;;;;23.17;15.97;;;3.90;99.90;;;;;;636764;226;26591;-77
2021/12/22 11:56:48;;;;;;;21.40;15.33;;;3.80;99.90;;;;;;636136;226;26551;-77
2021/12/22 11:59:24;;;;;;;22.03;15.23;;;3.80;99.90;;;;;;636709;226;26531;-77
2021/12/22 12:02:07;;;;;;;19.87;15.37;;;3.70;99.90;;;;;;636440;226;26771;-77
2021/12/22 12:04:35;;;;;;;23.03;15.67;;;3.70;99.90;;;;;;633711;226;26547;-76
2021/12/22 12:07:02;;;;;;;23.07;16.50;;;3.70;99.90;;;;;;624163;226;26601;-76
2021/12/22 12:09:30;;;;;;;23.17;15.47;;;4.20;99.90;;;;;;623828;230;26631;-76
2021/12/22 12:11:59;;;;;;;19.80;14.47;;;3.90;99.90;;;;;;623933;230;26602;-76
2021/12/22 12:15:05;;;;;;;18.97;14.13;;;3.90;99.90;;;;;;626740;227;26599;-76
2021/12/22 12:22:33;;;;;;;17.07;14.23;;;3.60;99.90;;;;;;630623;227;26630;-76
2021/12/22 12:25:04;;;;;;;17.57;13.87;;;3.50;99.90;;;;;;634088;226;26549;-75
2021/12/22 12:27:34;;;;;;;18.57;14.50;;;3.60;99.90;;;;;;634245;227;26548;-76
2021/12/22 12:30:04;;;;;;;20.20;14.20;;;3.60;99.90;;;;;;628999;227;26664;-76
2021/12/22 12:32:54;;;;;;;19.27;14.93;;;3.70;99.90;;;;;;623729;230;26598;-77
2021/12/22 12:35:23;;;;;;;20.30;14.20;;;3.70;99.90;;;;;;623996;228;26796;-77
2021/12/22 12:38:00;;;;;;;17.17;13.60;;;3.40;99.90;;;;;;629636;226;26553;-76
2021/12/22 12:40:39;;;;;;;20.33;13.03;;;3.40;99.90;;;;;;635228;226;26628;-76
2021/12/22 12:43:06;;;;;;;18.93;13.63;;;3.50;99.90;;;;;;635091;226;26548;-77
2021/12/22 12:45:43;;;;;;;19.27;13.70;;;3.60;99.90;;;;;;634919;226;26915;-77
2021/12/22 12:48:22;;;;;;;20.83;13.33;;;3.70;99.90;;;;;;629031;226;26882;-77
2021/12/22 12:51:01;;;;;;;19.77;14.10;;;3.60;99.90;;;;;;624459;230;26637;-77
2021/12/22 12:53:29;;;;;;;20.97;14.70;;;3.70;99.90;;;;;;624385;230;26864;-77
2021/12/22 12:56:02;;;;;;;18.03;12.97;;;3.80;99.90;;;;;;624127;230;26563;-76
2021/12/22 12:58:30;;;;;;;17.93;14.20;;;3.80;99.90;;;;;;623789;230;26551;-76
2021/12/22 13:00:59;;;;;;;21.40;14.83;;;3.80;99.90;;;;;;624092;230;26567;-77
2021/12/22 13:03:27;;;;;;;17.73;14.40;;;3.80;99.90;;;;;;623950;230;26796;-76